Time;durP1;ratioP1;P1;durP2;ratioP2;P2;SDS_P1;SDS_P2;PMS_P1;PMS_P2;Temp;Humidity;BMP_temperature;BMP_pressure;BME280_temperature;BME280_humidity;BME280_pressure;Samples;Min_cycle;Max_cycle;Signal;HPM_P1;HPM_P2
2022/05/04 00:00:24;;;;;;;6.67;4.23;;;;;;;9.64;88.87;98568.22;5013123;28;20713;-53
2022/05/04 00:02:52;;;;;;;7.10;4.90;;;;;;;9.52;90.23;98563.25;5013059;28;20195;-52
2022/05/04 00:05:20;;;;;;;7.30;4.50;;;;;;;9.48;91.00;98563.66;5012816;28;20203;-52
2022/05/04 00:07:48;;;;;;;6.10;4.90;;;;;;;9.46;90.80;98561.22;5012967;28;20196;-53
2022/05/04 00:10:15;;;;;;;7.20;4.33;;;;;;;9.42;90.08;98562.47;5013264;28;20212;-53
2022/05/04 00:12:43;;;;;;;9.57;4.53;;;;;;;9.38;90.47;98556.72;5013033;28;20202;-54
2022/05/04 00:15:11;;;;;;;7.53;5.03;;;;;;;9.37;90.55;98555.06;5012439;28;20230;-53
2022/05/04 00:17:38;;;;;;;8.17;4.43;;;;;;;9.29;89.82;98555.81;5012359;28;20203;-53
2022/05/04 00:20:07;;;;;;;6.70;4.60;;;;;;;9.28;90.76;98564.59;5012883;28;20201;-51
2022/05/04 00:22:35;;;;;;;7.20;4.80;;;;;;;9.14;90.75;98563.25;5012899;28;20254;-52
2022/05/04 00:25:03;;;;;;;5.37;4.17;;;;;;;9.11;90.66;98565.34;5011472;28;20227;-51
2022/05/04 00:27:30;;;;;;;9.47;4.87;;;;;;;9.07;90.90;98562.19;5008860;28;20690;-51
2022/05/04 00:29:57;;;;;;;6.63;4.43;;;;;;;9.06;90.14;98564.94;4990298;28;20204;-52
2022/05/04 00:32:24;;;;;;;7.43;4.80;;;;;;;8.96;90.59;98560.59;5012884;28;20192;-52
2022/05/04 00:34:51;;;;;;;7.70;4.80;;;;;;;8.96;90.51;98557.97;5006952;28;20201;-51
2022/05/04 00:37:18;;;;;;;6.93;5.13;;;;;;;8.95;91.09;98558.94;5012848;28;20246;-51
2022/05/04 00:39:47;;;;;;;6.47;4.57;;;;;;;8.92;90.54;98554.03;5013770;28;20203;-53
2022/05/04 00:42:16;;;;;;;6.17;4.80;;;;;;;8.93;90.34;98555.66;5013815;28;20222;-53
2022/05/04 00:44:46;;;;;;;5.53;4.50;;;;;;;8.94;90.37;98553.91;5012922;28;20227;-52
2022/05/04 00:47:14;;;;;;;6.53;4.40;;;;;;;8.89;90.31;98558.69;5006739;28;20181;-53
2022/05/04 00:49:42;;;;;;;8.40;4.50;;;;;;;8.89;90.37;98556.91;5012540;28;20616;-53
2022/05/04 00:52:11;;;;;;;6.23;4.70;;;;;;;8.91;90.89;98551.56;5012396;28;20195;-53
2022/05/04 00:54:38;;;;;;;5.60;4.30;;;;;;;8.88;91.49;98552.66;4993954;28;20213;-53
2022/05/04 00:57:07;;;;;;;5.83;4.40;;;;;;;8.88;91.20;98557.06;4994741;28;20227;-52
2022/05/04 00:59:37;;;;;;;9.00;4.97;;;;;;;8.91;92.14;98547.16;5013179;28;20203;-51
2022/05/04 01:02:05;;;;;;;7.47;4.63;;;;;;;8.89;92.49;98549.09;5013091;28;20208;-52
2022/05/04 01:04:32;;;;;;;6.07;4.67;;;;;;;8.85;91.35;98552.94;4994267;28;20246;-52
2022/05/04 01:07:00;;;;;;;6.47;4.57;;;;;;;8.85;92.18;98558.97;5012250;28;20561;-52
2022/05/04 01:09:26;;;;;;;5.27;4.47;;;;;;;8.89;92.46;98559.50;4994249;28;20199;-52
2022/05/04 01:11:55;;;;;;;6.33;4.67;;;;;;;9.04;92.08;98564.25;5012358;28;20198;-53
2022/05/04 01:14:23;;;;;;;8.73;4.93;;;;;;;8.98;92.12;98563.06;4994444;28;20246;-53
2022/05/04 01:16:50;;;;;;;5.83;4.83;;;;;;;8.91;92.94;98562.78;5012248;28;20279;-51
2022/05/04 01:19:17;;;;;;;5.10;4.33;;;;;;;8.87;92.43;98561.44;5017434;28;20194;-52
2022/05/04 01:21:50;;;;;;;4.90;4.40;;;;;;;8.82;91.51;98572.28;5001842;28;20199;-53
2022/05/04 01:24:19;;;;;;;5.87;4.93;;;;;;;8.89;93.38;98579.53;5012025;28;20244;-54
2022/05/04 01:26:46;;;;;;;6.63;4.40;;;;;;;8.79;93.00;98564.75;4994561;28;20200;-51
2022/05/04 01:29:14;;;;;;;6.87;4.47;;;;;;;8.73;92.93;98580.94;5012198;28;20573;-53
2022/05/04 01:31:40;;;;;;;4.90;4.17;;;;;;;8.76;93.45;98583.25;5012510;28;20193;-54
2022/05/04 01:34:08;;;;;;;5.47;4.60;;;;;;;8.69;93.81;98582.97;4994637;28;20216;-54
2022/05/04 01:36:35;;;;;;;7.27;4.77;;;;;;;8.59;93.87;98579.56;4994968;28;20247;-53
2022/05/04 01:39:03;;;;;;;8.80;5.00;;;;;;;8.52;93.58;98578.47;5012605;28;20285;-53
2022/05/04 01:44:23;;;;;;;7.73;4.80;;;;;;;8.40;94.40;98576.03;4987888;28;20712;-53
2022/05/04 01:46:51;;;;;;;6.67;4.80;;;;;;;8.37;95.03;98580.66;5012539;28;20629;-52
2022/05/04 01:49:18;;;;;;;6.27;4.70;;;;;;;8.28;94.89;98566.72;5012469;28;20224;-53
2022/05/04 01:51:46;;;;;;;5.20;4.40;;;;;;;8.23;95.14;98571.50;5012561;28;20200;-51
2022/05/04 01:54:31;;;;;;;6.13;4.60;;;;;;;8.23;95.41;98568.91;5006503;28;20312;-52
2022/05/04 01:57:00;;;;;;;6.27;4.87;;;;;;;8.21;95.35;98569.03;5012761;28;20188;-51
2022/05/04 01:59:26;;;;;;;5.47;4.88;;;;;;;8.19;95.55;98564.94;4994259;28;20458;-51
2022/05/04 02:01:54;;;;;;;5.60;4.63;;;;;;;8.16;96.47;98566.00;4994781;28;20219;-51
2022/05/04 02:04:22;;;;;;;9.50;4.80;;;;;;;8.07;95.97;98564.22;5011920;28;20682;-51
2022/05/04 02:06:50;;;;;;;5.87;4.63;;;;;;;8.01;96.39;98569.97;5014653;28;20271;-52
2022/05/04 02:09:19;;;;;;;6.67;4.80;;;;;;;7.97;96.94;98564.25;5015906;28;20193;-53
2022/05/04 02:11:47;;;;;;;4.90;4.37;;;;;;;7.99;97.31;98559.72;4998429;28;20233;-51
2022/05/04 02:14:15;;;;;;;9.80;4.73;;;;;;;7.99;96.85;98564.91;5015723;28;20229;-51
2022/05/04 02:16:42;;;;;;;8.73;4.53;;;;;;;7.90;96.90;98560.53;4998070;28;20207;-51
2022/05/04 02:19:10;;;;;;;6.40;4.57;;;;;;;7.87;97.96;98563.41;5015798;28;20199;-52
2022/05/04 02:21:37;;;;;;;7.10;5.10;;;;;;;7.88;97.59;98571.06;5016119;28;20199;-52
2022/05/04 02:24:05;;;;;;;6.17;4.50;;;;;;;7.86;98.38;98574.75;5015395;28;20260;-51
2022/05/04 02:26:32;;;;;;;6.33;4.50;;;;;;;7.79;98.59;98570.09;5016406;28;20215;-51
2022/05/04 02:28:59;;;;;;;9.03;5.27;;;;;;;7.78;98.47;98565.84;5012962;28;20207;-52
2022/05/04 02:31:28;;;;;;;6.40;5.17;;;;;;;7.79;98.55;98569.28;5015943;28;20282;-51
2022/05/04 02:33:55;;;;;;;7.47;4.90;;;;;;;7.78;99.17;98565.03;5015273;28;20267;-51
2022/05/04 02:39:07;;;;;;;5.97;4.63;;;;;;;7.80;99.10;98576.13;5015833;28;20202;-52
2022/05/04 02:41:34;;;;;;;6.23;4.90;;;;;;;7.86;100.00;98577.34;4997582;28;20200;-51
2022/05/04 02:44:02;;;;;;;6.13;4.93;;;;;;;7.83;99.89;98583.66;5014998;28;20256;-51
2022/05/04 02:46:31;;;;;;;6.23;4.80;;;;;;;7.89;99.47;98579.69;5015464;28;20207;-51
2022/05/04 02:48:59;;;;;;;6.20;4.67;;;;;;;7.86;99.94;98579.94;4997396;28;20209;-53
2022/05/04 02:51:27;;;;;;;8.90;5.20;;;;;;;7.79;99.63;98577.88;4997495;28;20196;-54
2022/05/04 02:53:54;;;;;;;6.03;4.60;;;;;;;7.73;100.00;98581.03;5014747;28;20222;-52
2022/05/04 02:56:22;;;;;;;7.40;4.97;;;;;;;7.79;100.00;98584.88;5015658;28;20201;-52
2022/05/04 02:58:51;;;;;;;5.90;5.17;;;;;;;7.75;100.00;98583.50;4997999;28;20263;-51
2022/05/04 03:04:06;;;;;;;8.47;5.07;;;;;;;7.65;100.00;98576.50;4996972;28;20370;-52
2022/05/04 03:06:34;;;;;;;8.17;4.70;;;;;;;7.71;100.00;98572.53;5014908;28;20203;-53
2022/05/04 03:09:02;;;;;;;9.97;5.43;;;;;;;7.77;100.00;98577.19;5015470;28;20203;-53
2022/05/04 03:14:14;;;;;;;6.20;4.37;;;;;;;7.77;100.00;98573.78;5015066;28;20215;-51
2022/05/04 03:16:41;;;;;;;6.37;4.67;;;;;;;7.72;100.00;98579.38;5015168;28;20278;-51
2022/05/04 03:19:09;;;;;;;7.53;4.47;;;;;;;7.75;100.00;98576.50;5014542;28;20207;-51
2022/05/04 03:21:37;;;;;;;8.53;5.00;;;;;;;7.87;100.00;98573.78;5015076;28;20210;-52
2022/05/04 03:24:05;;;;;;;9.67;4.67;;;;;;;8.03;100.00;98568.91;5014615;28;20647;-51
2022/05/04 03:26:33;;;;;;;6.97;4.57;;;;;;;8.01;100.00;98573.41;5015305;28;20196;-52
2022/05/04 03:29:00;;;;;;;5.47;4.80;;;;;;;8.03;100.00;98573.25;5015065;28;20190;-53
2022/05/04 03:31:27;;;;;;;5.40;4.70;;;;;;;7.98;100.00;98577.09;5014833;28;20195;-52
2022/05/04 03:33:55;;;;;;;5.97;5.17;;;;;;;7.97;100.00;98572.03;5014574;28;20703;-50
2022/05/04 03:36:24;;;;;;;7.37;4.30;;;;;;;8.00;100.00;98571.75;5014959;28;20215;-53
2022/05/04 03:38:51;;;;;;;5.90;4.30;;;;;;;7.96;100.00;98566.00;5014723;28;20699;-51
2022/05/04 03:41:18;;;;;;;6.97;4.70;;;;;;;8.00;100.00;98571.75;5014831;28;20197;-51
2022/05/04 03:43:45;;;;;;;4.87;4.27;;;;;;;8.05;100.00;98573.94;5014390;28;20196;-52
2022/05/04 03:46:15;;;;;;;6.87;4.03;;;;;;;8.04;99.98;98578.34;4997075;28;20222;-53
2022/05/04 03:48:43;;;;;;;6.00;4.60;;;;;;;8.01;99.39;98578.59;4996930;28;20216;-53
2022/05/04 03:51:10;;;;;;;6.63;4.07;;;;;;;8.02;99.54;98572.44;4996776;28;20274;-51
2022/05/04 03:53:39;;;;;;;7.10;4.77;;;;;;;8.04;100.00;98586.13;5014185;28;20190;-51
2022/05/04 03:56:07;;;;;;;5.47;4.43;;;;;;;8.09;100.00;98580.50;5014401;28;20242;-53
2022/05/04 03:58:34;;;;;;;7.77;4.30;;;;;;;8.03;100.00;98581.91;5014445;28;20183;-51
2022/05/04 04:01:01;;;;;;;6.10;4.77;;;;;;;8.11;100.00;98578.59;4996740;28;20196;-50
2022/05/04 04:03:28;;;;;;;5.77;4.50;;;;;;;8.08;100.00;98587.50;5014505;28;20611;-51
2022/05/04 04:05:56;;;;;;;6.20;4.40;;;;;;;8.08;100.00;98587.50;5013939;28;20227;-51
2022/05/04 04:08:23;;;;;;;5.50;4.27;;;;;;;8.07;100.00;98591.06;5014328;28;20183;-51
2022/05/04 04:10:53;;;;;;;5.87;4.80;;;;;;;8.09;100.00;98596.13;5014298;28;20183;-52
2022/05/04 04:13:19;;;;;;;6.17;5.00;;;;;;;8.15;100.00;98594.75;4996753;28;20193;-51
2022/05/04 04:15:51;;;;;;;8.07;4.37;;;;;;;8.17;100.00;98593.66;5013735;28;20596;-52
2022/05/04 04:18:18;;;;;;;8.37;4.70;;;;;;;8.22;100.00;98598.47;5013883;28;20201;-51
2022/05/04 04:23:30;;;;;;;6.77;4.10;;;;;;;8.44;99.42;98601.75;5013627;28;20184;-51
2022/05/04 04:25:59;;;;;;;4.90;4.20;;;;;;;8.52;99.05;98607.09;5013776;28;20222;-51
2022/05/04 04:28:27;;;;;;;5.27;4.13;;;;;;;8.62;99.35;98605.31;5013932;28;20188;-53
2022/05/04 04:30:54;;;;;;;7.00;4.10;;;;;;;8.70;99.40;98609.84;5013100;28;20193;-51
2022/05/04 04:33:26;;;;;;;7.50;4.13;;;;;;;8.80;99.27;98613.25;5013897;28;20194;-51
2022/05/04 04:35:53;;;;;;;4.60;4.20;;;;;;;8.93;98.66;98612.13;5013385;28;20202;-51
2022/05/04 04:38:20;;;;;;;7.97;4.57;;;;;;;9.05;98.09;98617.97;5013713;28;20188;-51
2022/05/04 04:40:47;;;;;;;5.97;4.20;;;;;;;9.17;97.68;98624.66;5013773;28;20184;-51
2022/05/04 04:43:16;;;;;;;7.47;5.23;;;;;;;9.29;97.30;98627.91;5013807;28;20195;-52
2022/05/04 04:45:45;;;;;;;6.50;4.20;;;;;;;9.41;97.23;98625.97;5013398;28;20216;-53
2022/05/04 04:48:12;;;;;;;6.50;4.27;;;;;;;9.48;98.60;98631.41;5013370;28;20191;-51
2022/05/04 04:50:39;;;;;;;6.10;4.30;;;;;;;9.63;98.52;98621.31;5013484;28;20194;-53
2022/05/04 04:53:06;;;;;;;5.43;4.23;;;;;;;9.81;96.23;98630.00;4995497;28;20223;-52
2022/05/04 04:55:34;;;;;;;5.70;4.27;;;;;;;9.94;96.19;98628.84;5013206;28;20283;-52
2022/05/04 04:58:01;;;;;;;6.77;4.50;;;;;;;10.08;97.64;98628.34;5013161;28;20176;-52
2022/05/04 05:00:30;;;;;;;5.33;4.83;;;;;;;10.21;96.05;98627.97;5012816;28;20207;-52
2022/05/04 05:02:57;;;;;;;7.23;4.47;;;;;;;10.40;95.46;98623.59;4995214;28;20192;-52
2022/05/04 05:05:24;;;;;;;6.30;4.17;;;;;;;10.57;93.78;98624.56;5012498;28;20243;-52
2022/05/04 05:07:52;;;;;;;6.23;4.03;;;;;;;10.75;93.20;98621.94;5013115;28;20702;-53
2022/05/04 05:10:19;;;;;;;6.53;4.37;;;;;;;10.93;92.03;98621.88;5012786;28;20185;-52
2022/05/04 05:12:46;;;;;;;6.90;4.40;;;;;;;11.03;88.87;98625.22;5012902;28;20684;-51
2022/05/04 05:18:00;;;;;;;5.47;4.53;;;;;;;11.39;87.99;98623.47;5012832;28;20223;-51
2022/05/04 05:20:26;;;;;;;9.00;6.47;;;;;;;11.60;87.33;98620.44;5012755;28;20185;-52
2022/05/04 05:22:53;;;;;;;5.03;4.47;;;;;;;11.77;85.68;98613.47;5012976;28;20192;-52
2022/05/04 05:25:20;;;;;;;6.10;3.90;;;;;;;12.02;84.46;98619.63;5012411;28;20304;-51
2022/05/04 05:27:48;;;;;;;229.23;75.77;;;;;;;12.19;83.05;98625.69;4995024;28;20232;-52
2022/05/04 05:30:15;;;;;;;276.23;84.33;;;;;;;12.24;84.68;98620.78;5012910;28;20223;-53
2022/05/04 05:32:43;;;;;;;21.20;10.07;;;;;;;12.43;82.41;98624.09;5012993;28;20276;-53
2022/05/04 05:35:11;;;;;;;10.07;4.30;;;;;;;12.55;80.62;98621.94;5012422;28;20594;-51
2022/05/04 05:37:38;;;;;;;6.63;3.93;;;;;;;12.79;80.87;98625.56;5013019;28;20758;-52
2022/05/04 05:40:07;;;;;;;5.23;3.80;;;;;;;13.04;80.48;98621.09;4995135;28;20201;-52
2022/05/04 05:42:35;;;;;;;4.93;3.97;;;;;;;13.29;80.73;98634.13;5016360;28;20193;-51
2022/05/04 05:45:02;;;;;;;5.43;3.63;;;;;;;13.54;80.75;98627.03;4998888;28;20683;-52
2022/05/04 05:47:29;;;;;;;4.87;3.67;;;;;;;13.80;80.85;98631.19;5016804;28;20189;-54
2022/05/04 05:49:57;;;;;;;12.47;6.33;;;;;;;14.01;80.20;98632.41;5016711;28;20652;-52
2022/05/04 05:52:27;;;;;;;12.80;7.03;;;;;;;14.26;78.57;98634.88;5016465;28;20575;-52
2022/05/04 05:54:54;;;;;;;12.20;6.20;;;;;;;14.42;77.38;98642.63;5016045;28;20211;-52
2022/05/04 05:57:22;;;;;;;9.10;5.17;;;;;;;14.55;76.64;98646.47;5016258;28;20221;-52
2022/05/04 05:59:49;;;;;;;9.03;5.30;;;;;;;14.74;74.40;98653.91;4998627;28;20211;-51
2022/05/04 06:02:16;;;;;;;7.63;5.40;;;;;;;14.93;74.18;98650.94;5015238;28;20905;-50
2022/05/04 06:04:44;;;;;;;7.50;4.13;;;;;;;14.99;68.49;98645.81;5015558;28;20689;-50
2022/05/04 06:07:11;;;;;;;7.50;4.70;;;;;;;15.14;67.11;98645.81;5015844;28;20188;-52
2022/05/04 06:09:39;;;;;;;6.17;4.60;;;;;;;15.37;67.99;98652.00;5016033;28;20660;-50
2022/05/04 06:12:07;;;;;;;6.67;4.50;;;;;;;15.25;67.75;98657.72;5015936;28;20514;-50
2022/05/04 06:14:34;;;;;;;6.33;4.53;;;;;;;15.59;68.33;98658.97;5015705;28;20214;-50
2022/05/04 06:17:01;;;;;;;8.47;5.17;;;;;;;15.43;66.60;98670.50;5015640;28;20198;-51
2022/05/04 06:19:28;;;;;;;8.70;5.10;;;;;;;15.45;67.01;98667.69;5015834;28;20187;-50
2022/05/04 06:21:55;;;;;;;7.90;5.50;;;;;;;15.10;67.36;98668.19;5015760;28;20711;-50
2022/05/04 06:24:22;;;;;;;7.87;4.53;;;;;;;15.41;65.44;98674.28;5015399;28;20236;-50
2022/05/04 06:26:50;;;;;;;6.73;5.40;;;;;;;15.04;67.81;98679.44;5015559;28;20215;-51
2022/05/04 06:29:17;;;;;;;8.40;4.77;;;;;;;15.42;68.31;98675.94;4997796;28;20245;-50
2022/05/04 06:34:29;;;;;;;8.60;5.97;;;;;;;15.38;66.89;98686.00;5015114;28;20831;-51
2022/05/04 06:36:57;;;;;;;12.13;6.60;;;;;;;15.16;67.03;98682.47;5015266;28;20181;-50
2022/05/04 06:39:24;;;;;;;10.97;6.33;;;;;;;14.97;69.36;98691.66;5015245;28;20195;-52
2022/05/04 06:41:53;;;;;;;11.37;6.67;;;;;;;14.78;70.42;98693.78;5015361;28;20192;-50
2022/05/04 06:44:20;;;;;;;11.77;6.07;;;;;;;14.71;70.81;98693.66;4997203;28;20215;-53
2022/05/04 06:46:48;;;;;;;7.60;5.83;;;;;;;14.71;70.90;98695.50;5015300;28;20221;-50
2022/05/04 06:49:15;;;;;;;10.47;6.10;;;;;;;14.55;70.44;98696.38;5015044;28;20267;-50
2022/05/04 06:51:43;;;;;;;9.53;6.07;;;;;;;14.46;71.88;98693.00;5015243;28;20278;-51
2022/05/04 06:54:10;;;;;;;8.80;5.63;;;;;;;14.21;73.14;98694.97;5013988;28;20572;-51
2022/05/04 06:56:37;;;;;;;10.67;7.17;;;;;;;14.19;73.74;98702.19;5015052;28;20186;-50
2022/05/04 06:59:06;;;;;;;11.00;6.33;;;;;;;14.36;74.47;98710.78;5014908;28;20194;-50
2022/05/04 07:01:34;;;;;;;7.60;5.80;;;;;;;14.16;75.05;98698.94;5015039;28;20218;-50
2022/05/04 07:04:01;;;;;;;9.10;5.70;;;;;;;14.21;74.74;98698.41;5014493;28;20277;-51
2022/05/04 07:06:28;;;;;;;9.00;6.73;;;;;;;14.22;75.07;98704.47;5017171;28;20220;-50
2022/05/04 07:08:55;;;;;;;6.90;5.83;;;;;;;14.10;77.95;98704.84;5021266;28;20198;-50
2022/05/04 07:11:22;;;;;;;8.27;5.73;;;;;;;14.19;78.11;98712.69;5021688;28;20198;-51
2022/05/04 07:13:50;;;;;;;6.93;5.17;;;;;;;14.20;75.71;98712.50;5005414;28;20294;-51
2022/05/04 07:16:18;;;;;;;8.43;5.80;;;;;;;14.26;78.36;98711.81;5002574;28;20222;-50
2022/05/04 07:18:45;;;;;;;9.13;6.00;;;;;;;14.41;79.30;98709.25;5021364;28;20214;-50
2022/05/04 07:21:13;;;;;;;8.87;6.70;;;;;;;14.30;79.39;98707.06;5020261;28;20192;-50
2022/05/04 07:23:39;;;;;;;8.87;6.03;;;;;;;13.84;81.06;98705.13;4992533;28;20202;-53
2022/05/04 07:26:06;;;;;;;8.30;6.13;;;;;;;13.88;82.22;98709.88;5014759;28;20218;-49
2022/05/04 07:28:33;;;;;;;9.97;6.80;;;;;;;13.37;82.21;98707.53;5014842;28;20672;-49
2022/05/04 07:31:01;;;;;;;7.27;6.07;;;;;;;13.49;81.64;98705.41;5014283;28;20220;-49
2022/05/04 07:33:31;;;;;;;8.70;5.70;;;;;;;13.42;81.17;98707.88;5019185;28;20197;-49
2022/05/04 07:35:58;;;;;;;8.80;6.50;;;;;;;13.46;83.21;98704.94;5013414;28;20553;-50
2022/05/04 07:38:26;;;;;;;9.03;6.37;;;;;;;13.58;83.03;98701.75;4996424;28;20190;-48
2022/05/04 07:43:38;;;;;;;10.50;6.70;;;;;;;13.74;81.54;98707.94;5013107;28;20194;-49
2022/05/04 07:46:05;;;;;;;10.70;7.90;;;;;;;13.62;82.09;98711.91;5013705;28;20597;-49
2022/05/04 07:48:34;;;;;;;8.80;7.17;;;;;;;13.78;81.58;98711.88;5015933;28;20609;-49
2022/05/04 07:51:01;;;;;;;8.30;7.10;;;;;;;13.73;77.86;98716.81;5018016;28;20218;-50
2022/05/04 07:53:29;;;;;;;11.00;8.20;;;;;;;13.57;82.08;98712.44;5023990;28;20192;-50
2022/05/04 07:55:56;;;;;;;9.80;7.47;;;;;;;13.85;81.12;98712.84;5023959;28;20296;-51
2022/05/04 07:58:23;;;;;;;9.53;7.37;;;;;;;13.89;81.86;98715.91;5023955;28;20296;-50
2022/05/04 08:06:20;;;;;;;7.53;6.40;;;;;;;13.90;79.69;98712.31;5006493;28;20387;-50
2022/05/04 08:08:48;;;;;;;8.53;7.17;;;;;;;13.68;81.11;98716.50;5012899;28;20201;-53
2022/05/04 08:11:15;;;;;;;9.60;7.07;;;;;;;13.55;80.95;98717.84;5012946;28;20587;-50
2022/05/04 08:13:42;;;;;;;7.63;6.43;;;;;;;13.64;80.96;98716.03;5012729;28;20195;-50
2022/05/04 08:16:11;;;;;;;9.40;7.80;;;;;;;13.56;83.52;98719.47;5012741;28;20194;-51
2022/05/04 08:18:40;;;;;;;8.87;6.60;;;;;;;13.49;82.88;98721.13;5015735;28;20201;-51
2022/05/04 08:21:08;;;;;;;8.17;7.00;;;;;;;13.45;83.71;98716.41;5011388;28;20203;-50
2022/05/04 08:23:35;;;;;;;9.20;6.60;;;;;;;13.52;83.54;98720.00;4995089;28;20280;-50
2022/05/04 08:26:02;;;;;;;8.80;6.33;;;;;;;13.78;81.42;98726.81;5012342;28;20205;-50
2022/05/04 08:28:30;;;;;;;10.63;7.47;;;;;;;13.29;84.78;98725.91;5013054;28;20299;-50
2022/05/04 08:30:58;;;;;;;10.80;9.20;;;;;;;13.38;85.45;98716.19;4995379;28;20201;-51
2022/05/04 08:33:25;;;;;;;12.40;8.10;;;;;;;13.72;84.10;98716.00;5012854;28;20188;-51
2022/05/04 08:35:54;;;;;;;13.80;10.30;;;;;;;13.63;83.53;98711.75;5016677;28;20208;-51
2022/05/04 08:38:22;;;;;;;33.93;19.20;;;;;;;13.71;83.38;98721.41;5003550;28;20240;-49
2022/05/04 08:40:52;;;;;;;11.67;7.10;;;;;;;13.92;83.71;98718.19;5023886;28;20269;-51
2022/05/04 08:43:23;;;;;;;11.53;7.90;;;;;;;14.20;83.51;98723.00;5020845;28;20200;-51
2022/05/04 08:45:52;;;;;;;17.90;8.87;;;;;;;14.14;83.77;98724.53;5013692;28;20686;-53
2022/05/04 08:48:21;;;;;;;18.90;10.47;;;;;;;14.09;83.89;98731.25;5021218;28;20226;-54
2022/05/04 08:50:50;;;;;;;9.40;6.27;;;;;;;13.71;84.64;98727.47;5019924;28;20251;-51
2022/05/04 08:53:19;;;;;;;9.63;6.57;;;;;;;14.00;84.48;98727.88;5003334;28;20209;-51
2022/05/04 08:56:05;;;;;;;7.67;6.30;;;;;;;14.40;83.24;98722.59;5015950;28;20207;-51
2022/05/04 08:58:35;;;;;;;8.63;6.30;;;;;;;15.01;80.85;98721.84;5015047;28;20592;-53
2022/05/04 09:01:02;;;;;;;8.20;6.90;;;;;;;14.53;79.90;98735.97;5012552;28;20198;-52
2022/05/04 09:03:29;;;;;;;8.60;7.10;;;;;;;14.21;79.96;98715.97;4995268;28;20734;-53
2022/05/04 09:05:56;;;;;;;7.53;6.30;;;;;;;14.49;83.16;98713.66;5012721;28;20240;-49
2022/05/04 09:08:25;;;;;;;9.43;6.80;;;;;;;14.71;79.55;98716.50;5012813;28;20198;-54
2022/05/04 09:10:52;;;;;;;8.83;7.23;;;;;;;14.97;81.14;98721.41;5011832;28;20273;-52
2022/05/04 09:13:20;;;;;;;7.90;6.30;;;;;;;15.48;78.63;98720.75;5016859;28;20276;-53
2022/05/04 09:15:47;;;;;;;11.20;7.30;;;;;;;15.84;75.89;98724.47;5021037;28;20794;-53
2022/05/04 09:18:16;;;;;;;7.53;6.33;;;;;;;16.02;71.77;98723.31;5025020;28;20660;-50
2022/05/04 09:20:55;;;;;;;11.53;6.47;;;;;;;16.29;71.62;98727.06;5027070;28;20192;-53
2022/05/04 09:23:26;;;;;;;10.30;6.50;;;;;;;16.43;70.16;98728.03;5024634;28;20191;-52
2022/05/04 09:26:15;;;;;;;9.87;6.83;;;;;;;16.52;68.23;98721.63;5024956;28;20234;-53
2022/05/04 09:28:42;;;;;;;7.73;6.80;;;;;;;16.65;70.30;98725.41;5027610;28;20198;-53
2022/05/04 09:31:09;;;;;;;7.50;6.10;;;;;;;16.60;67.24;98725.97;5028319;28;20244;-53
2022/05/04 09:33:37;;;;;;;7.97;6.43;;;;;;;16.29;68.84;98729.69;5022719;28;20210;-51
2022/05/04 09:36:06;;;;;;;10.60;6.83;;;;;;;16.37;70.59;98728.78;5027422;28;20269;-50
2022/05/04 09:46:53;;;;;;;9.00;7.20;;;;;;;16.29;68.04;98729.69;5024324;28;20206;-51
2022/05/04 09:49:21;;;;;;;11.37;7.53;;;;;;;16.48;67.58;98724.84;5025456;28;20256;-51
2022/05/04 09:51:52;;;;;;;8.17;7.37;;;;;;;16.72;67.12;98722.84;5026617;28;20197;-51
2022/05/04 09:54:22;;;;;;;7.80;7.00;;;;;;;16.78;67.21;98716.84;5025714;28;20269;-50
2022/05/04 09:56:51;;;;;;;7.30;6.20;;;;;;;16.92;66.85;98718.59;5024440;28;20180;-51
2022/05/04 09:59:20;;;;;;;10.60;6.67;;;;;;;16.66;66.21;98717.34;5028046;28;20274;-51
2022/05/04 10:01:49;;;;;;;9.17;6.40;;;;;;;16.80;65.95;98710.34;5028730;28;20204;-51
2022/05/04 10:04:17;;;;;;;7.60;6.80;;;;;;;17.14;64.13;98707.22;5026131;28;20223;-50
2022/05/04 10:07:03;;;;;;;7.27;5.57;;;;;;;17.06;65.00;98705.50;5029468;28;20330;-52
2022/05/04 10:09:32;;;;;;;7.40;5.63;;;;;;;17.10;66.26;98704.97;5030378;28;20273;-51
2022/05/04 10:12:01;;;;;;;6.13;5.33;;;;;;;17.32;64.58;98707.56;5030227;28;20224;-51
2022/05/04 10:14:30;;;;;;;7.83;5.30;;;;;;;17.08;65.49;98703.50;5019149;28;20315;-51
2022/05/04 10:17:03;;;;;;;9.30;5.70;;;;;;;17.08;65.76;98706.13;5029211;28;20189;-51
2022/05/04 10:19:37;;;;;;;7.47;6.40;;;;;;;17.07;67.01;98693.97;5027934;28;20289;-51
2022/05/04 10:22:09;;;;;;;9.10;5.93;;;;;;;16.82;68.27;98695.16;5026301;28;20241;-52
2022/05/04 10:24:38;;;;;;;7.47;6.57;;;;;;;16.74;67.15;98694.50;5019269;28;20219;-51
2022/05/04 10:27:18;;;;;;;8.20;6.50;;;;;;;16.42;69.10;98692.16;5018441;28;20717;-51
2022/05/04 10:32:36;;;;;;;6.37;5.70;;;;;;;16.33;69.41;98695.91;5015866;28;20204;-51
2022/05/04 10:35:10;;;;;;;9.17;6.63;;;;;;;16.05;71.06;98686.88;5015330;28;20236;-51
2022/05/04 10:38:03;;;;;;;9.13;6.20;;;;;;;15.94;72.60;98684.72;4995909;28;20206;-51
2022/05/04 10:40:34;;;;;;;9.07;6.27;;;;;;;15.84;73.05;98682.38;5013189;28;20195;-51
2022/05/04 10:43:03;;;;;;;9.33;6.50;;;;;;;15.84;73.18;98678.94;5012330;28;20212;-49
2022/05/04 10:45:32;;;;;;;9.50;6.60;;;;;;;15.61;72.21;98675.38;4996160;28;20589;-48
2022/05/04 10:48:25;;;;;;;7.70;6.53;;;;;;;15.70;72.71;98678.75;5014431;28;20219;-49
2022/05/04 10:50:53;;;;;;;7.83;5.73;;;;;;;15.86;72.65;98677.72;4996451;28;20270;-48
2022/05/04 10:53:41;;;;;;;8.80;6.10;;;;;;;15.77;73.57;98671.78;5014043;28;20200;-48
2022/05/04 10:56:12;;;;;;;7.40;5.80;;;;;;;15.82;74.63;98665.94;5013786;28;20204;-49
2022/05/04 10:58:43;;;;;;;8.80;6.77;;;;;;;15.91;72.96;98664.03;5013728;28;20279;-48
2022/05/04 11:01:12;;;;;;;8.90;6.00;;;;;;;16.02;71.69;98658.28;5014155;28;20553;-49
2022/05/04 11:03:50;;;;;;;9.30;6.13;;;;;;;16.15;72.32;98659.44;5013704;28;20608;-49
2022/05/04 11:06:29;;;;;;;7.70;5.97;;;;;;;16.28;72.08;98661.44;4996539;28;20196;-49
2022/05/04 11:08:59;;;;;;;9.33;6.47;;;;;;;16.43;71.56;98656.88;5013788;28;20262;-50
2022/05/04 11:11:28;;;;;;;8.53;6.03;;;;;;;16.64;70.38;98655.25;5013997;28;20595;-49
2022/05/04 11:13:55;;;;;;;7.03;6.17;;;;;;;16.67;71.27;98646.97;5013275;28;20819;-49
2022/05/04 11:16:23;;;;;;;7.80;5.83;;;;;;;16.90;72.37;98645.94;5012926;28;20248;-50
2022/05/04 11:18:50;;;;;;;6.30;5.50;;;;;;;17.18;70.64;98645.16;5013551;28;20815;-49
2022/05/04 11:21:18;;;;;;;7.70;5.53;;;;;;;17.53;71.25;98645.13;5013664;28;20422;-50
2022/05/04 11:23:49;;;;;;;9.17;5.87;;;;;;;17.56;65.76;98635.00;5013640;28;20201;-50
2022/05/04 11:26:21;;;;;;;6.07;5.13;;;;;;;17.81;66.92;98637.16;5013582;28;20200;-50
2022/05/04 11:28:50;;;;;;;8.80;5.97;;;;;;;18.04;65.58;98640.50;5013470;28;20676;-49
2022/05/04 11:31:18;;;;;;;6.83;5.23;;;;;;;18.11;64.73;98630.75;5013351;28;20251;-50
2022/05/04 11:33:46;;;;;;;5.60;4.93;;;;;;;18.44;65.59;98638.75;4995556;28;20622;-53
2022/05/04 11:36:18;;;;;;;5.60;4.47;;;;;;;18.56;61.07;98632.84;5013513;28;20194;-49
2022/05/04 11:38:46;;;;;;;7.17;5.00;;;;;;;18.69;63.64;98629.38;5013652;28;20201;-52
2022/05/04 11:41:13;;;;;;;7.33;5.47;;;;;;;18.69;60.16;98632.84;4995738;28;20197;-49
2022/05/04 11:43:40;;;;;;;5.57;4.40;;;;;;;18.66;63.94;98630.63;5013000;28;20256;-53
2022/05/04 11:46:10;;;;;;;9.37;5.17;;;;;;;18.42;60.51;98627.56;5013069;28;20197;-49
2022/05/04 11:48:39;;;;;;;6.93;4.83;;;;;;;18.76;58.75;98629.41;5013158;28;20225;-50
2022/05/04 11:51:06;;;;;;;8.00;5.13;;;;;;;18.84;57.02;98629.19;5013195;28;20244;-49
2022/05/04 11:53:34;;;;;;;6.50;3.80;;;;;;;18.69;53.82;98632.03;4995715;28;20232;-49
2022/05/04 11:56:03;;;;;;;4.97;3.70;;;;;;;18.59;56.02;98621.88;5020128;28;20192;-48
2022/05/04 11:58:30;;;;;;;4.80;4.00;;;;;;;18.81;56.26;98619.03;5015953;28;20185;-50
2022/05/04 12:00:58;;;;;;;4.63;3.77;;;;;;;18.90;54.30;98623.09;5019592;28;20237;-50
2022/05/04 12:03:29;;;;;;;3.90;3.50;;;;;;;19.11;54.27;98623.88;5020439;28;20193;-49
2022/05/04 12:05:57;;;;;;;4.37;3.87;;;;;;;19.18;50.42;98625.50;5014060;28;20310;-49
2022/05/04 12:08:25;;;;;;;5.10;3.53;;;;;;;19.05;51.96;98616.78;5017354;28;20213;-50
2022/05/04 12:10:52;;;;;;;4.47;3.77;;;;;;;19.03;51.34;98620.47;5017405;28;20232;-49
2022/05/04 12:13:25;;;;;;;4.50;3.70;;;;;;;19.01;49.72;98619.03;5004029;28;20198;-49
2022/05/04 12:15:54;;;;;;;4.43;3.70;;;;;;;18.89;47.78;98616.97;5017497;28;20225;-50
2022/05/04 12:18:22;;;;;;;7.43;3.80;;;;;;;18.98;48.76;98611.50;4992160;28;20210;-49